sensor_id;sensor_type;location;lat;lon;timestamp;temperature;humidity
9425;DHT22;17139;52.140;11.636;2023-05-10T00:01:43;11.10;43.00
9425;DHT22;17139;52.140;11.636;2023-05-10T00:04:11;11.00;43.00
9425;DHT22;17139;52.140;11.636;2023-05-10T00:06:38;11.00;43.00
9425;DHT22;17139;52.140;11.636;2023-05-10T00:09:05;10.90;43.00
9425;DHT22;17139;52.140;11.636;2023-05-10T00:11:32;10.90;43.20
9425;DHT22;17139;52.140;11.636;2023-05-10T00:13:59;10.90;43.20
9425;DHT22;17139;52.140;11.636;2023-05-10T00:16:26;11.00;43.40
9425;DHT22;17139;52.140;11.636;2023-05-10T00:18:53;11.30;43.50
9425;DHT22;17139;52.140;11.636;2023-05-10T00:21:21;11.20;42.70
9425;DHT22;17139;52.140;11.636;2023-05-10T00:23:51;11.00;42.90
9425;DHT22;17139;52.140;11.636;2023-05-10T00:26:18;10.90;43.00
9425;DHT22;17139;52.140;11.636;2023-05-10T00:28:45;10.80;43.20
9425;DHT22;17139;52.140;11.636;2023-05-10T00:31:12;10.80;43.20
9425;DHT22;17139;52.140;11.636;2023-05-10T00:33:40;10.70;43.10
9425;DHT22;17139;52.140;11.636;2023-05-10T00:36:07;10.70;43.10
9425;DHT22;17139;52.140;11.636;2023-05-10T00:38:36;11.20;43.60
9425;DHT22;17139;52.140;11.636;2023-05-10T00:41:03;11.10;42.90
9425;DHT22;17139;52.140;11.636;2023-05-10T00:43:30;10.90;43.00
9425;DHT22;17139;52.140;11.636;2023-05-10T00:45:57;10.90;43.30
9425;DHT22;17139;52.140;11.636;2023-05-10T00:48:25;10.80;43.20
9425;DHT22;17139;52.140;11.636;2023-05-10T00:50:52;10.80;43.20
9425;DHT22;17139;52.140;11.636;2023-05-10T00:53:19;10.70;43.20
9425;DHT22;17139;52.140;11.636;2023-05-10T00:55:48;10.60;43.10
9425;DHT22;17139;52.140;11.636;2023-05-10T00:58:15;10.50;43.90
9425;DHT22;17139;52.140;11.636;2023-05-10T01:00:42;10.50;43.30
9425;DHT22;17139;52.140;11.636;2023-05-10T01:03:10;10.40;43.20
9425;DHT22;17139;52.140;11.636;2023-05-10T01:05:37;10.40;43.30
9425;DHT22;17139;52.140;11.636;2023-05-10T01:08:04;10.40;43.30
9425;DHT22;17139;52.140;11.636;2023-05-10T01:10:32;10.90;44.10
9425;DHT22;17139;52.140;11.636;2023-05-10T01:13:01;11.50;43.80
9425;DHT22;17139;52.140;11.636;2023-05-10T01:15:29;11.20;42.80
9425;DHT22;17139;52.140;11.636;2023-05-10T01:17:57;10.90;43.00
9425;DHT22;17139;52.140;11.636;2023-05-10T01:20:24;10.80;43.30
9425;DHT22;17139;52.140;11.636;2023-05-10T01:23:16;10.60;43.10
9425;DHT22;17139;52.140;11.636;2023-05-10T01:26:29;10.50;43.50
9425;DHT22;17139;52.140;11.636;2023-05-10T01:29:24;10.40;43.50
9425;DHT22;17139;52.140;11.636;2023-05-10T01:32:26;10.30;43.60
9425;DHT22;17139;52.140;11.636;2023-05-10T01:34:59;11.10;44.10
9425;DHT22;17139;52.140;11.636;2023-05-10T01:37:36;11.80;43.60
9425;DHT22;17139;52.140;11.636;2023-05-10T01:40:11;11.30;42.90
9425;DHT22;17139;52.140;11.636;2023-05-10T01:42:46;11.00;43.40
9425;DHT22;17139;52.140;11.636;2023-05-10T01:45:18;10.70;43.50
9425;DHT22;17139;52.140;11.636;2023-05-10T01:47:52;10.50;43.70
9425;DHT22;17139;52.140;11.636;2023-05-10T01:50:27;10.40;43.80
9425;DHT22;17139;52.140;11.636;2023-05-10T01:52:57;10.30;43.80
9425;DHT22;17139;52.140;11.636;2023-05-10T01:55:28;10.50;44.40
9425;DHT22;17139;52.140;11.636;2023-05-10T01:58:01;10.60;44.20
9425;DHT22;17139;52.140;11.636;2023-05-10T02:00:29;10.50;43.60
9425;DHT22;17139;52.140;11.636;2023-05-10T02:03:00;10.30;43.60
9425;DHT22;17139;52.140;11.636;2023-05-10T02:05:30;10.20;43.80
9425;DHT22;17139;52.140;11.636;2023-05-10T02:07:59;10.20;43.80
9425;DHT22;17139;52.140;11.636;2023-05-10T02:10:28;10.20;43.90
9425;DHT22;17139;52.140;11.636;2023-05-10T02:12:58;10.10;43.80
9425;DHT22;17139;52.140;11.636;2023-05-10T02:15:26;10.00;43.90
9425;DHT22;17139;52.140;11.636;2023-05-10T02:17:55;10.50;44.70
9425;DHT22;17139;52.140;11.636;2023-05-10T02:20:25;10.40;43.60
9425;DHT22;17139;52.140;11.636;2023-05-10T02:22:54;10.30;43.70
9425;DHT22;17139;52.140;11.636;2023-05-10T02:25:23;10.10;43.80
9425;DHT22;17139;52.140;11.636;2023-05-10T02:27:53;10.00;43.80
9425;DHT22;17139;52.140;11.636;2023-05-10T02:30:22;10.00;43.90
9425;DHT22;17139;52.140;11.636;2023-05-10T02:32:50;9.90;43.90
9425;DHT22;17139;52.140;11.636;2023-05-10T02:35:19;9.90;44.00
9425;DHT22;17139;52.140;11.636;2023-05-10T02:37:48;9.90;44.00
9425;DHT22;17139;52.140;11.636;2023-05-10T02:40:16;9.90;44.40
9425;DHT22;17139;52.140;11.636;2023-05-10T02:42:44;9.90;43.90
9425;DHT22;17139;52.140;11.636;2023-05-10T02:45:17;9.90;43.90
9425;DHT22;17139;52.140;11.636;2023-05-10T02:47:45;9.80;43.90
9425;DHT22;17139;52.140;11.636;2023-05-10T02:50:12;10.40;45.00
9425;DHT22;17139;52.140;11.636;2023-05-10T02:52:40;10.20;43.70
9425;DHT22;17139;52.140;11.636;2023-05-10T02:55:13;10.00;43.70
9425;DHT22;17139;52.140;11.636;2023-05-10T02:57:43;10.00;44.00
9425;DHT22;17139;52.140;11.636;2023-05-10T03:00:12;9.90;44.00
9425;DHT22;17139;52.140;11.636;2023-05-10T03:02:39;9.80;44.00
9425;DHT22;17139;52.140;11.636;2023-05-10T03:05:06;9.70;44.00
9425;DHT22;17139;52.140;11.636;2023-05-10T03:07:33;9.70;44.10
9425;DHT22;17139;52.140;11.636;2023-05-10T03:10:01;9.70;44.10
9425;DHT22;17139;52.140;11.636;2023-05-10T03:12:38;9.90;45.10
9425;DHT22;17139;52.140;11.636;2023-05-10T03:15:13;10.50;45.10
9425;DHT22;17139;52.140;11.636;2023-05-10T03:17:47;10.20;43.90
9425;DHT22;17139;52.140;11.636;2023-05-10T03:20:22;10.00;44.00
9425;DHT22;17139;52.140;11.636;2023-05-10T03:22:55;9.90;44.20
9425;DHT22;17139;52.140;11.636;2023-05-10T03:25:23;9.80;44.30
9425;DHT22;17139;52.140;11.636;2023-05-10T03:27:52;9.70;44.50
9425;DHT22;17139;52.140;11.636;2023-05-10T03:30:19;9.60;44.30
9425;DHT22;17139;52.140;11.636;2023-05-10T03:32:46;9.60;44.30
9425;DHT22;17139;52.140;11.636;2023-05-10T03:35:14;9.60;44.30
9425;DHT22;17139;52.140;11.636;2023-05-10T03:37:41;9.60;44.70
9425;DHT22;17139;52.140;11.636;2023-05-10T03:40:09;9.60;44.20
9425;DHT22;17139;52.140;11.636;2023-05-10T03:42:36;9.60;44.30
9425;DHT22;17139;52.140;11.636;2023-05-10T03:45:06;9.50;44.30
9425;DHT22;17139;52.140;11.636;2023-05-10T03:47:33;9.50;44.30
9425;DHT22;17139;52.140;11.636;2023-05-10T03:50:00;9.50;44.30
9425;DHT22;17139;52.140;11.636;2023-05-10T03:52:28;9.50;44.30
9425;DHT22;17139;52.140;11.636;2023-05-10T03:54:55;9.50;44.30
9425;DHT22;17139;52.140;11.636;2023-05-10T03:57:22;9.50;44.30
9425;DHT22;17139;52.140;11.636;2023-05-10T03:59:49;9.70;45.00
9425;DHT22;17139;52.140;11.636;2023-05-10T04:02:17;9.80;44.40
9425;DHT22;17139;52.140;11.636;2023-05-10T04:04:44;9.70;44.30
9425;DHT22;17139;52.140;11.636;2023-05-10T04:07:11;10.10;46.00
9425;DHT22;17139;52.140;11.636;2023-05-10T04:09:38;10.00;44.20
9425;DHT22;17139;52.140;11.636;2023-05-10T04:12:06;9.90;44.20
9425;DHT22;17139;52.140;11.636;2023-05-10T04:14:33;9.90;44.40
9425;DHT22;17139;52.140;11.636;2023-05-10T04:17:00;9.90;44.40
9425;DHT22;17139;52.140;11.636;2023-05-10T04:19:31;9.90;44.40
9425;DHT22;17139;52.140;11.636;2023-05-10T04:21:58;9.90;44.40
9425;DHT22;17139;52.140;11.636;2023-05-10T04:24:25;9.90;44.30
9425;DHT22;17139;52.140;11.636;2023-05-10T04:26:54;10.70;45.40
9425;DHT22;17139;52.140;11.636;2023-05-10T04:29:21;11.50;44.90
9425;DHT22;17139;52.140;11.636;2023-05-10T04:31:48;11.10;43.90
9425;DHT22;17139;52.140;11.636;2023-05-10T04:34:16;10.90;44.10
9425;DHT22;17139;52.140;11.636;2023-05-10T04:36:45;10.70;44.30
9425;DHT22;17139;52.140;11.636;2023-05-10T04:39:15;10.60;44.40
9425;DHT22;17139;52.140;11.636;2023-05-10T04:41:42;11.20;45.20
9425;DHT22;17139;52.140;11.636;2023-05-10T04:44:09;11.00;44.20
9425;DHT22;17139;52.140;11.636;2023-05-10T04:46:36;11.30;45.00
9425;DHT22;17139;52.140;11.636;2023-05-10T04:49:03;11.60;45.00
9425;DHT22;17139;52.140;11.636;2023-05-10T04:51:30;11.30;44.10
9425;DHT22;17139;52.140;11.636;2023-05-10T04:53:58;11.10;44.30
9425;DHT22;17139;52.140;11.636;2023-05-10T04:56:26;11.00;44.50
9425;DHT22;17139;52.140;11.636;2023-05-10T04:58:53;10.90;44.50
9425;DHT22;17139;52.140;11.636;2023-05-10T05:01:20;10.90;44.60
9425;DHT22;17139;52.140;11.636;2023-05-10T05:03:48;11.00;44.90
9425;DHT22;17139;52.140;11.636;2023-05-10T05:06:16;11.00;44.90
9425;DHT22;17139;52.140;11.636;2023-05-10T05:08:43;12.20;45.40
9425;DHT22;17139;52.140;11.636;2023-05-10T05:11:11;12.00;44.30
9425;DHT22;17139;52.140;11.636;2023-05-10T05:13:38;12.40;44.70
9425;DHT22;17139;52.140;11.636;2023-05-10T05:16:06;12.20;44.40
9425;DHT22;17139;52.140;11.636;2023-05-10T05:18:33;12.10;44.30
9425;DHT22;17139;52.140;11.636;2023-05-10T05:21:00;12.10;44.40
9425;DHT22;17139;52.140;11.636;2023-05-10T05:23:27;12.10;44.40
9425;DHT22;17139;52.140;11.636;2023-05-10T05:25:54;12.20;44.40
9425;DHT22;17139;52.140;11.636;2023-05-10T05:28:22;12.20;44.40
9425;DHT22;17139;52.140;11.636;2023-05-10T05:30:49;12.20;44.50
9425;DHT22;17139;52.140;11.636;2023-05-10T05:33:16;12.30;44.50
9425;DHT22;17139;52.140;11.636;2023-05-10T05:35:44;13.10;44.40
9425;DHT22;17139;52.140;11.636;2023-05-10T05:38:16;13.90;43.40
9425;DHT22;17139;52.140;11.636;2023-05-10T05:40:43;13.50;43.30
9425;DHT22;17139;52.140;11.636;2023-05-10T05:43:11;13.20;43.60
9425;DHT22;17139;52.140;11.636;2023-05-10T05:45:39;13.10;44.00
9425;DHT22;17139;52.140;11.636;2023-05-10T05:48:06;13.20;44.30
9425;DHT22;17139;52.140;11.636;2023-05-10T05:50:33;13.40;44.80
9425;DHT22;17139;52.140;11.636;2023-05-10T05:53:00;13.70;45.10
9425;DHT22;17139;52.140;11.636;2023-05-10T05:55:27;14.10;45.10
9425;DHT22;17139;52.140;11.636;2023-05-10T05:57:57;14.50;45.00
9425;DHT22;17139;52.140;11.636;2023-05-10T06:00:24;14.70;44.70
9425;DHT22;17139;52.140;11.636;2023-05-10T06:02:52;15.00;44.70
9425;DHT22;17139;52.140;11.636;2023-05-10T06:05:20;16.30;42.90
9425;DHT22;17139;52.140;11.636;2023-05-10T06:07:47;16.20;43.20
9425;DHT22;17139;52.140;11.636;2023-05-10T06:10:13;16.30;43.60
9425;DHT22;17139;52.140;11.636;2023-05-10T06:12:40;16.30;43.70
9425;DHT22;17139;52.140;11.636;2023-05-10T06:15:09;16.40;43.60
9425;DHT22;17139;52.140;11.636;2023-05-10T06:17:36;16.50;43.50
9425;DHT22;17139;52.140;11.636;2023-05-10T06:20:07;16.50;43.50
9425;DHT22;17139;52.140;11.636;2023-05-10T06:22:34;16.50;43.50
9425;DHT22;17139;52.140;11.636;2023-05-10T06:25:01;16.40;43.20
9425;DHT22;17139;52.140;11.636;2023-05-10T06:27:28;16.50;42.70
9425;DHT22;17139;52.140;11.636;2023-05-10T06:29:55;16.20;42.90
9425;DHT22;17139;52.140;11.636;2023-05-10T06:32:22;15.90;43.10
9425;DHT22;17139;52.140;11.636;2023-05-10T06:34:49;15.70;43.50
9425;DHT22;17139;52.140;11.636;2023-05-10T06:37:18;15.60;43.70
9425;DHT22;17139;52.140;11.636;2023-05-10T06:39:45;15.60;43.70
9425;DHT22;17139;52.140;11.636;2023-05-10T06:42:12;15.40;43.60
9425;DHT22;17139;52.140;11.636;2023-05-10T06:44:39;15.40;43.70
9425;DHT22;17139;52.140;11.636;2023-05-10T06:47:06;15.40;43.70
9425;DHT22;17139;52.140;11.636;2023-05-10T06:49:33;15.60;43.60
9425;DHT22;17139;52.140;11.636;2023-05-10T06:52:00;15.50;43.50
9425;DHT22;17139;52.140;11.636;2023-05-10T06:54:28;15.50;43.60
9425;DHT22;17139;52.140;11.636;2023-05-10T06:56:55;15.60;43.70
9425;DHT22;17139;52.140;11.636;2023-05-10T06:59:22;15.60;43.70
9425;DHT22;17139;52.140;11.636;2023-05-10T07:01:49;15.60;43.70
9425;DHT22;17139;52.140;11.636;2023-05-10T07:04:16;15.70;43.60
9425;DHT22;17139;52.140;11.636;2023-05-10T07:06:44;15.80;44.30
9425;DHT22;17139;52.140;11.636;2023-05-10T07:09:11;16.40;43.40
9425;DHT22;17139;52.140;11.636;2023-05-10T07:11:40;16.90;42.80
9425;DHT22;17139;52.140;11.636;2023-05-10T07:14:07;16.80;42.90
9425;DHT22;17139;52.140;11.636;2023-05-10T07:16:34;17.40;42.30
9425;DHT22;17139;52.140;11.636;2023-05-10T07:19:01;17.20;42.60
9425;DHT22;17139;52.140;11.636;2023-05-10T07:21:30;17.60;42.30
9425;DHT22;17139;52.140;11.636;2023-05-10T07:23:57;18.10;41.60
9425;DHT22;17139;52.140;11.636;2023-05-10T07:26:25;18.40;41.80
9425;DHT22;17139;52.140;11.636;2023-05-10T07:28:54;18.00;41.90
9425;DHT22;17139;52.140;11.636;2023-05-10T07:31:21;17.80;42.40
9425;DHT22;17139;52.140;11.636;2023-05-10T07:33:48;17.60;42.60
9425;DHT22;17139;52.140;11.636;2023-05-10T07:36:15;17.50;42.80
9425;DHT22;17139;52.140;11.636;2023-05-10T07:38:42;17.50;42.90
9425;DHT22;17139;52.140;11.636;2023-05-10T07:41:09;17.60;43.10
9425;DHT22;17139;52.140;11.636;2023-05-10T07:43:36;17.60;43.20
9425;DHT22;17139;52.140;11.636;2023-05-10T07:46:04;17.70;43.10
9425;DHT22;17139;52.140;11.636;2023-05-10T07:48:31;17.70;43.10
9425;DHT22;17139;52.140;11.636;2023-05-10T07:50:58;17.70;43.20
9425;DHT22;17139;52.140;11.636;2023-05-10T07:53:26;18.50;42.00
9425;DHT22;17139;52.140;11.636;2023-05-10T07:55:56;18.30;42.50
9425;DHT22;17139;52.140;11.636;2023-05-10T07:58:24;18.20;42.90
9425;DHT22;17139;52.140;11.636;2023-05-10T08:00:52;18.10;43.10
9425;DHT22;17139;52.140;11.636;2023-05-10T08:03:20;18.10;43.30
9425;DHT22;17139;52.140;11.636;2023-05-10T08:05:47;18.20;43.20
9425;DHT22;17139;52.140;11.636;2023-05-10T08:08:14;18.20;43.20
9425;DHT22;17139;52.140;11.636;2023-05-10T08:10:41;18.20;43.20
9425;DHT22;17139;52.140;11.636;2023-05-10T08:13:08;18.50;42.80
9425;DHT22;17139;52.140;11.636;2023-05-10T08:15:35;18.90;42.20
9425;DHT22;17139;52.140;11.636;2023-05-10T08:18:03;18.70;42.60
9425;DHT22;17139;52.140;11.636;2023-05-10T08:20:31;18.50;42.90
9425;DHT22;17139;52.140;11.636;2023-05-10T08:22:58;18.50;43.20
9425;DHT22;17139;52.140;11.636;2023-05-10T08:25:25;18.40;43.30
9425;DHT22;17139;52.140;11.636;2023-05-10T08:27:52;18.30;43.30
9425;DHT22;17139;52.140;11.636;2023-05-10T08:30:19;18.90;42.40
9425;DHT22;17139;52.140;11.636;2023-05-10T08:32:46;19.20;41.90
9425;DHT22;17139;52.140;11.636;2023-05-10T08:35:15;19.30;41.70
9425;DHT22;17139;52.140;11.636;2023-05-10T08:37:44;18.80;42.30
9425;DHT22;17139;52.140;11.636;2023-05-10T08:40:12;18.50;42.80
9425;DHT22;17139;52.140;11.636;2023-05-10T08:42:40;18.30;43.20
9425;DHT22;17139;52.140;11.636;2023-05-10T08:45:10;18.20;43.40
9425;DHT22;17139;52.140;11.636;2023-05-10T08:47:37;18.00;43.40
9425;DHT22;17139;52.140;11.636;2023-05-10T08:50:06;17.80;43.60
9425;DHT22;17139;52.140;11.636;2023-05-10T08:52:37;17.70;44.50
9425;DHT22;17139;52.140;11.636;2023-05-10T08:55:07;18.20;43.40
9425;DHT22;17139;52.140;11.636;2023-05-10T08:57:34;17.80;43.50
9425;DHT22;17139;52.140;11.636;2023-05-10T09:00:03;17.50;43.90
9425;DHT22;17139;52.140;11.636;2023-05-10T09:02:30;17.40;44.30
9425;DHT22;17139;52.140;11.636;2023-05-10T09:04:57;17.30;44.30
9425;DHT22;17139;52.140;11.636;2023-05-10T09:07:25;17.30;44.30
9425;DHT22;17139;52.140;11.636;2023-05-10T09:09:52;17.30;44.40
9425;DHT22;17139;52.140;11.636;2023-05-10T09:12:21;18.00;44.10
9425;DHT22;17139;52.140;11.636;2023-05-10T09:14:48;17.80;44.00
9425;DHT22;17139;52.140;11.636;2023-05-10T09:17:19;17.60;44.10
9425;DHT22;17139;52.140;11.636;2023-05-10T09:19:47;17.60;44.40
9425;DHT22;17139;52.140;11.636;2023-05-10T09:22:14;17.50;44.40
9425;DHT22;17139;52.140;11.636;2023-05-10T09:24:42;17.50;44.50
9425;DHT22;17139;52.140;11.636;2023-05-10T09:27:10;17.40;44.60
9425;DHT22;17139;52.140;11.636;2023-05-10T09:29:42;17.40;44.70
9425;DHT22;17139;52.140;11.636;2023-05-10T09:32:10;17.40;44.90
9425;DHT22;17139;52.140;11.636;2023-05-10T09:34:37;17.40;44.90
9425;DHT22;17139;52.140;11.636;2023-05-10T09:37:06;17.40;44.90
9425;DHT22;17139;52.140;11.636;2023-05-10T09:39:34;17.40;44.90
9425;DHT22;17139;52.140;11.636;2023-05-10T09:42:03;17.70;45.10
9425;DHT22;17139;52.140;11.636;2023-05-10T09:44:31;18.20;45.00
9425;DHT22;17139;52.140;11.636;2023-05-10T09:47:00;17.90;44.70
9425;DHT22;17139;52.140;11.636;2023-05-10T09:49:27;17.70;45.00
9425;DHT22;17139;52.140;11.636;2023-05-10T09:52:00;17.60;45.20
9425;DHT22;17139;52.140;11.636;2023-05-10T09:54:28;17.60;45.40
9425;DHT22;17139;52.140;11.636;2023-05-10T09:56:55;17.50;45.50
9425;DHT22;17139;52.140;11.636;2023-05-10T09:59:25;17.60;45.50
9425;DHT22;17139;52.140;11.636;2023-05-10T10:01:53;17.60;45.60
9425;DHT22;17139;52.140;11.636;2023-05-10T10:04:23;18.30;46.00
9425;DHT22;17139;52.140;11.636;2023-05-10T10:07:01;18.80;46.10
9425;DHT22;17139;52.140;11.636;2023-05-10T10:09:29;18.50;45.50
9425;DHT22;17139;52.140;11.636;2023-05-10T10:11:56;18.30;45.60
9425;DHT22;17139;52.140;11.636;2023-05-10T10:14:24;18.20;45.80
9425;DHT22;17139;52.140;11.636;2023-05-10T10:16:54;18.10;45.80
9425;DHT22;17139;52.140;11.636;2023-05-10T10:19:23;18.10;45.80
9425;DHT22;17139;52.140;11.636;2023-05-10T10:21:50;18.10;45.80
9425;DHT22;17139;52.140;11.636;2023-05-10T10:24:17;18.40;46.40
9425;DHT22;17139;52.140;11.636;2023-05-10T10:26:45;18.80;46.20
9425;DHT22;17139;52.140;11.636;2023-05-10T10:29:21;18.80;46.30
9425;DHT22;17139;52.140;11.636;2023-05-10T10:31:55;18.70;45.80
9425;DHT22;17139;52.140;11.636;2023-05-10T10:34:28;18.70;45.80
9425;DHT22;17139;52.140;11.636;2023-05-10T10:36:56;18.60;45.90
9425;DHT22;17139;52.140;11.636;2023-05-10T10:39:23;18.50;46.60
9425;DHT22;17139;52.140;11.636;2023-05-10T10:41:52;18.60;45.90
9425;DHT22;17139;52.140;11.636;2023-05-10T10:44:24;18.50;45.90
9425;DHT22;17139;52.140;11.636;2023-05-10T10:47:05;18.60;46.90
9425;DHT22;17139;52.140;11.636;2023-05-10T10:49:38;18.50;46.00
9425;DHT22;17139;52.140;11.636;2023-05-10T10:52:23;18.70;46.70
9425;DHT22;17139;52.140;11.636;2023-05-10T10:54:53;18.40;46.10
9425;DHT22;17139;52.140;11.636;2023-05-10T10:57:21;18.20;46.50
9425;DHT22;17139;52.140;11.636;2023-05-10T10:59:48;18.00;46.70
9425;DHT22;17139;52.140;11.636;2023-05-10T11:02:34;17.90;46.90
9425;DHT22;17139;52.140;11.636;2023-05-10T11:05:23;17.90;47.00
9425;DHT22;17139;52.140;11.636;2023-05-10T11:07:54;17.80;46.90
9425;DHT22;17139;52.140;11.636;2023-05-10T11:10:22;17.80;47.10
9425;DHT22;17139;52.140;11.636;2023-05-10T11:12:53;17.80;47.10
9425;DHT22;17139;52.140;11.636;2023-05-10T11:15:29;17.80;47.20
9425;DHT22;17139;52.140;11.636;2023-05-10T11:17:57;17.90;47.30
9425;DHT22;17139;52.140;11.636;2023-05-10T11:20:27;18.00;47.30
9425;DHT22;17139;52.140;11.636;2023-05-10T11:23:11;18.80;48.50
9425;DHT22;17139;52.140;11.636;2023-05-10T11:25:41;18.90;48.00
9425;DHT22;17139;52.140;11.636;2023-05-10T11:28:09;19.20;47.90
9425;DHT22;17139;52.140;11.636;2023-05-10T11:30:38;18.90;47.30
9425;DHT22;17139;52.140;11.636;2023-05-10T11:33:06;18.70;47.30
9425;DHT22;17139;52.140;11.636;2023-05-10T11:35:39;18.50;47.50
9425;DHT22;17139;52.140;11.636;2023-05-10T11:38:07;18.50;47.70
9425;DHT22;17139;52.140;11.636;2023-05-10T11:40:34;18.50;47.60
9425;DHT22;17139;52.140;11.636;2023-05-10T11:43:02;18.50;48.30
9425;DHT22;17139;52.140;11.636;2023-05-10T11:45:30;18.60;48.10
9425;DHT22;17139;52.140;11.636;2023-05-10T11:47:59;18.80;48.50
9425;DHT22;17139;52.140;11.636;2023-05-10T11:50:26;18.80;48.00
9425;DHT22;17139;52.140;11.636;2023-05-10T11:52:56;18.80;48.00
9425;DHT22;17139;52.140;11.636;2023-05-10T11:55:24;18.80;47.90
9425;DHT22;17139;52.140;11.636;2023-05-10T11:57:54;18.80;48.00
9425;DHT22;17139;52.140;11.636;2023-05-10T12:00:21;18.70;48.00
9425;DHT22;17139;52.140;11.636;2023-05-10T12:02:49;18.60;48.00
9425;DHT22;17139;52.140;11.636;2023-05-10T12:05:16;18.60;48.20
9425;DHT22;17139;52.140;11.636;2023-05-10T12:07:43;18.50;48.30
9425;DHT22;17139;52.140;11.636;2023-05-10T12:10:13;18.50;48.40
9425;DHT22;17139;52.140;11.636;2023-05-10T12:12:41;18.60;48.60
9425;DHT22;17139;52.140;11.636;2023-05-10T12:15:12;19.40;49.80
9425;DHT22;17139;52.140;11.636;2023-05-10T12:17:44;19.30;48.70
9425;DHT22;17139;52.140;11.636;2023-05-10T12:20:15;19.10;48.60
9425;DHT22;17139;52.140;11.636;2023-05-10T12:22:45;19.10;48.80
9425;DHT22;17139;52.140;11.636;2023-05-10T12:25:13;19.00;48.60
9425;DHT22;17139;52.140;11.636;2023-05-10T12:27:41;19.00;48.80
9425;DHT22;17139;52.140;11.636;2023-05-10T12:30:19;18.90;48.90
9425;DHT22;17139;52.140;11.636;2023-05-10T12:32:46;19.00;49.10
9425;DHT22;17139;52.140;11.636;2023-05-10T12:35:13;19.20;49.60
9425;DHT22;17139;52.140;11.636;2023-05-10T12:37:42;19.70;50.00
9425;DHT22;17139;52.140;11.636;2023-05-10T12:40:11;19.60;48.90
9425;DHT22;17139;52.140;11.636;2023-05-10T12:42:40;19.40;48.70
9425;DHT22;17139;52.140;11.636;2023-05-10T12:45:08;19.50;48.90
9425;DHT22;17139;52.140;11.636;2023-05-10T12:47:37;19.50;48.90
9425;DHT22;17139;52.140;11.636;2023-05-10T12:50:05;19.60;48.80
9425;DHT22;17139;52.140;11.636;2023-05-10T12:52:32;19.50;48.80
9425;DHT22;17139;52.140;11.636;2023-05-10T12:55:00;19.50;48.90
9425;DHT22;17139;52.140;11.636;2023-05-10T12:57:29;20.00;50.10
9425;DHT22;17139;52.140;11.636;2023-05-10T12:59:58;20.50;50.10
9425;DHT22;17139;52.140;11.636;2023-05-10T13:02:25;20.10;49.10
9425;DHT22;17139;52.140;11.636;2023-05-10T13:04:53;19.80;49.20
9425;DHT22;17139;52.140;11.636;2023-05-10T13:07:20;19.60;49.30
9425;DHT22;17139;52.140;11.636;2023-05-10T13:09:47;19.30;49.40
9425;DHT22;17139;52.140;11.636;2023-05-10T13:12:14;19.00;49.60
9425;DHT22;17139;52.140;11.636;2023-05-10T13:14:41;18.80;50.00
9425;DHT22;17139;52.140;11.636;2023-05-10T13:17:09;18.80;50.70
9425;DHT22;17139;52.140;11.636;2023-05-10T13:19:36;18.90;51.00
9425;DHT22;17139;52.140;11.636;2023-05-10T13:22:03;18.60;50.20
9425;DHT22;17139;52.140;11.636;2023-05-10T13:24:30;18.30;50.50
9425;DHT22;17139;52.140;11.636;2023-05-10T13:26:58;18.00;50.60
9425;DHT22;17139;52.140;11.636;2023-05-10T13:29:25;17.70;50.90
9425;DHT22;17139;52.140;11.636;2023-05-10T13:31:52;17.60;51.00
9425;DHT22;17139;52.140;11.636;2023-05-10T13:34:21;17.50;50.90
9425;DHT22;17139;52.140;11.636;2023-05-10T13:36:48;17.60;51.10
9425;DHT22;17139;52.140;11.636;2023-05-10T13:39:15;17.60;50.90
9425;DHT22;17139;52.140;11.636;2023-05-10T13:41:42;17.70;50.90
9425;DHT22;17139;52.140;11.636;2023-05-10T13:44:11;17.90;50.70
9425;DHT22;17139;52.140;11.636;2023-05-10T13:46:38;18.00;50.50
9425;DHT22;17139;52.140;11.636;2023-05-10T13:49:05;18.20;50.40
9425;DHT22;17139;52.140;11.636;2023-05-10T13:51:35;18.30;50.10
9425;DHT22;17139;52.140;11.636;2023-05-10T13:54:02;18.50;50.90
9425;DHT22;17139;52.140;11.636;2023-05-10T13:56:29;18.70;50.00
9425;DHT22;17139;52.140;11.636;2023-05-10T13:58:56;19.60;50.80
9425;DHT22;17139;52.140;11.636;2023-05-10T14:01:24;19.50;49.80
9425;DHT22;17139;52.140;11.636;2023-05-10T14:03:51;19.40;49.70
9425;DHT22;17139;52.140;11.636;2023-05-10T14:06:18;19.80;50.90
9425;DHT22;17139;52.140;11.636;2023-05-10T14:08:46;19.70;49.90
9425;DHT22;17139;52.140;11.636;2023-05-10T14:11:13;19.60;49.80
9425;DHT22;17139;52.140;11.636;2023-05-10T14:13:40;19.50;49.60
9425;DHT22;17139;52.140;11.636;2023-05-10T14:16:07;19.60;49.60
9425;DHT22;17139;52.140;11.636;2023-05-10T14:18:35;19.50;49.60
9425;DHT22;17139;52.140;11.636;2023-05-10T14:21:02;19.50;49.50
9425;DHT22;17139;52.140;11.636;2023-05-10T14:23:30;19.50;49.50
9425;DHT22;17139;52.140;11.636;2023-05-10T14:25:58;19.50;49.60
9425;DHT22;17139;52.140;11.636;2023-05-10T14:28:25;20.10;49.70
9425;DHT22;17139;52.140;11.636;2023-05-10T14:30:52;20.60;49.10
9425;DHT22;17139;52.140;11.636;2023-05-10T14:33:19;20.30;48.90
9425;DHT22;17139;52.140;11.636;2023-05-10T14:35:47;20.50;49.20
9425;DHT22;17139;52.140;11.636;2023-05-10T14:38:15;20.20;48.80
9425;DHT22;17139;52.140;11.636;2023-05-10T14:40:42;19.90;49.00
9425;DHT22;17139;52.140;11.636;2023-05-10T14:43:10;19.70;49.30
9425;DHT22;17139;52.140;11.636;2023-05-10T14:45:37;19.70;49.50
9425;DHT22;17139;52.140;11.636;2023-05-10T14:48:04;20.30;49.40
9425;DHT22;17139;52.140;11.636;2023-05-10T14:50:32;20.80;48.90
9425;DHT22;17139;52.140;11.636;2023-05-10T14:52:59;20.50;48.80
9425;DHT22;17139;52.140;11.636;2023-05-10T14:55:26;20.30;48.90
9425;DHT22;17139;52.140;11.636;2023-05-10T14:57:53;20.20;49.10
9425;DHT22;17139;52.140;11.636;2023-05-10T15:00:22;20.20;49.10
9425;DHT22;17139;52.140;11.636;2023-05-10T15:02:49;20.20;49.20
9425;DHT22;17139;52.140;11.636;2023-05-10T15:05:16;20.10;49.20
9425;DHT22;17139;52.140;11.636;2023-05-10T15:07:43;20.20;49.00
9425;DHT22;17139;52.140;11.636;2023-05-10T15:10:10;20.10;48.90
9425;DHT22;17139;52.140;11.636;2023-05-10T15:12:38;20.00;49.00
9425;DHT22;17139;52.140;11.636;2023-05-10T15:15:06;20.60;48.60
9425;DHT22;17139;52.140;11.636;2023-05-10T15:17:35;20.30;48.40
9425;DHT22;17139;52.140;11.636;2023-05-10T15:20:03;20.20;48.80
9425;DHT22;17139;52.140;11.636;2023-05-10T15:22:30;20.00;49.00
9425;DHT22;17139;52.140;11.636;2023-05-10T15:24:58;20.00;49.20
9425;DHT22;17139;52.140;11.636;2023-05-10T15:27:25;19.90;49.20
9425;DHT22;17139;52.140;11.636;2023-05-10T15:29:52;19.90;49.30
9425;DHT22;17139;52.140;11.636;2023-05-10T15:32:19;19.80;49.40
9425;DHT22;17139;52.140;11.636;2023-05-10T15:34:48;20.00;49.40
9425;DHT22;17139;52.140;11.636;2023-05-10T15:37:15;20.40;49.00
9425;DHT22;17139;52.140;11.636;2023-05-10T15:39:43;20.20;48.80
9425;DHT22;17139;52.140;11.636;2023-05-10T15:42:12;19.90;48.90